createdAt,value
2024-01-04T00:01:35.357Z,12.73
2024-01-04T00:04:02.607Z,7.20
2024-01-04T00:06:29.728Z,10.70
2024-01-04T00:08:56.947Z,8.20
2024-01-04T00:11:23.987Z,7.97
2024-01-04T00:13:52.745Z,7.07
2024-01-04T00:16:19.715Z,8.02
2024-01-04T00:18:47.179Z,5.30
2024-01-04T00:21:15.252Z,9.50
2024-01-04T00:23:42.563Z,7.32
2024-01-04T00:26:09.699Z,8.38
2024-01-04T00:28:37.561Z,7.45
2024-01-04T00:31:06.522Z,7.32
2024-01-04T00:33:33.773Z,5.95
2024-01-04T00:36:00.854Z,5.75
2024-01-04T00:38:27.929Z,9.30
2024-01-04T00:40:55.050Z,7.22
2024-01-04T00:43:22.113Z,8.98
2024-01-04T00:45:49.184Z,7.07
2024-01-04T00:48:18.059Z,7.95
2024-01-04T00:50:45.458Z,8.68
2024-01-04T00:53:13.200Z,7.78
2024-01-04T00:55:40.250Z,8.52
2024-01-04T00:58:07.443Z,6.20
2024-01-04T01:00:34.861Z,5.50
2024-01-04T01:03:02.243Z,5.63
2024-01-04T01:05:30.819Z,8.05
2024-01-04T01:07:57.872Z,8.30
2024-01-04T01:10:24.874Z,9.00
2024-01-04T01:12:51.931Z,6.45
2024-01-04T01:15:19.011Z,6.75
2024-01-04T01:17:46.447Z,7.13
2024-01-04T01:20:13.807Z,4.93
2024-01-04T01:22:42.169Z,6.00
2024-01-04T01:25:10.074Z,6.93
2024-01-04T01:27:37.667Z,5.30
2024-01-04T01:30:05.396Z,5.88
2024-01-04T01:32:32.500Z,6.35
2024-01-04T01:34:59.671Z,7.03
2024-01-04T01:37:26.869Z,7.72
2024-01-04T01:39:55.317Z,7.25
2024-01-04T01:42:22.489Z,8.60
2024-01-04T01:44:49.769Z,5.68
2024-01-04T01:47:17.479Z,4.93
2024-01-04T01:49:45.037Z,5.15
2024-01-04T01:52:12.666Z,6.22
2024-01-04T01:54:40.604Z,7.60
2024-01-04T01:57:10.091Z,8.07
2024-01-04T01:59:37.839Z,6.05
2024-01-04T02:02:05.191Z,5.55
2024-01-04T02:04:32.635Z,6.00
2024-01-04T02:06:59.928Z,6.65
2024-01-04T02:09:27.127Z,7.18
2024-01-04T02:12:04.638Z,6.85
2024-01-04T02:14:33.125Z,7.18
2024-01-04T02:17:00.240Z,9.57
2024-01-04T02:19:29.039Z,5.20
2024-01-04T02:21:56.675Z,5.45
2024-01-04T02:24:25.498Z,6.40
2024-01-04T02:26:52.520Z,5.28
2024-01-04T02:29:19.697Z,13.95
2024-01-04T02:31:48.731Z,3.40
2024-01-04T02:34:15.932Z,5.28
2024-01-04T02:36:42.977Z,5.00
2024-01-04T02:39:11.520Z,4.22
2024-01-04T02:41:40.286Z,5.68
2024-01-04T02:44:08.705Z,4.25
2024-01-04T02:46:36.978Z,5.50
2024-01-04T02:49:04.306Z,4.85
2024-01-04T02:51:31.390Z,6.40
2024-01-04T02:53:58.518Z,5.28
2024-01-04T02:56:31.301Z,6.25
2024-01-04T02:59:01.456Z,8.40
2024-01-04T03:01:28.473Z,6.72
2024-01-04T03:03:56.900Z,6.35
2024-01-04T03:06:24.375Z,9.18
2024-01-04T03:08:52.157Z,7.03
2024-01-04T03:11:19.499Z,5.38
2024-01-04T03:13:47.924Z,6.60
2024-01-04T03:16:16.653Z,8.80
2024-01-04T03:18:43.835Z,8.70
2024-01-04T03:21:11.431Z,7.13
2024-01-04T03:23:38.464Z,9.25
2024-01-04T03:26:05.841Z,8.02
2024-01-04T03:28:32.859Z,7.03
2024-01-04T03:30:59.896Z,6.15
2024-01-04T03:33:28.462Z,8.35
2024-01-04T03:35:55.576Z,9.45
2024-01-04T03:38:22.660Z,6.25
2024-01-04T03:40:49.660Z,6.75
2024-01-04T03:43:16.937Z,8.30
2024-01-04T03:45:43.952Z,6.45
2024-01-04T03:48:11.088Z,8.52
2024-01-04T03:50:39.544Z,6.35
2024-01-04T03:53:09.467Z,7.82
2024-01-04T03:55:36.573Z,5.15
2024-01-04T03:58:03.688Z,7.15
2024-01-04T04:00:30.710Z,6.03
2024-01-04T04:02:57.941Z,6.85
2024-01-04T04:05:25.232Z,6.72
2024-01-04T04:07:53.655Z,5.28
2024-01-04T04:10:20.712Z,5.78
2024-01-04T04:12:47.685Z,6.25
2024-01-04T04:15:15.348Z,5.82
2024-01-04T04:17:42.739Z,6.90
2024-01-04T04:20:10.790Z,9.25
2024-01-04T04:22:37.791Z,8.45
2024-01-04T04:25:06.861Z,6.82
2024-01-04T04:27:33.846Z,8.20
2024-01-04T04:30:01.008Z,6.63
2024-01-04T04:32:28.257Z,9.18
2024-01-04T04:34:55.368Z,5.88
2024-01-04T04:37:23.612Z,4.03
2024-01-04T04:39:50.795Z,6.00
2024-01-04T04:42:19.200Z,6.20
2024-01-04T04:44:46.214Z,7.35
2024-01-04T04:47:13.262Z,8.57
2024-01-04T04:49:40.318Z,10.38
2024-01-04T04:52:07.372Z,19.65
2024-01-04T04:54:34.333Z,17.25
2024-01-04T04:57:02.212Z,20.88
2024-01-04T04:59:30.614Z,25.67
2024-01-04T05:01:57.615Z,13.65
2024-01-04T05:04:25.207Z,14.77
2024-01-04T05:06:52.611Z,18.27
2024-01-04T05:09:19.732Z,21.38
2024-01-04T05:11:46.877Z,21.50
2024-01-04T05:14:16.895Z,18.75
2024-01-04T05:16:45.610Z,19.10
2024-01-04T05:19:12.883Z,23.40
2024-01-04T05:21:41.324Z,21.35
2024-01-04T05:24:08.388Z,22.38
2024-01-04T05:26:35.628Z,21.30
2024-01-04T05:29:03.680Z,17.77
2024-01-04T05:31:30.722Z,16.90
2024-01-04T05:33:59.534Z,17.50
2024-01-04T05:36:26.673Z,16.35
2024-01-04T05:38:53.728Z,16.10
2024-01-04T05:41:21.244Z,11.80
2024-01-04T05:43:48.576Z,9.02
2024-01-04T05:46:15.581Z,10.02
2024-01-04T05:48:42.825Z,8.07
2024-01-04T05:51:11.357Z,17.40
2024-01-04T05:53:38.586Z,8.13
2024-01-04T05:56:05.952Z,8.23
2024-01-04T05:58:33.175Z,11.60
2024-01-04T06:01:00.271Z,9.20
2024-01-04T06:03:27.430Z,8.82
2024-01-04T06:05:54.585Z,7.03
2024-01-04T06:08:23.177Z,11.70
2024-01-04T06:10:50.161Z,8.88
2024-01-04T06:13:17.225Z,9.65
2024-01-04T06:15:46.196Z,14.52
2024-01-04T06:18:13.369Z,10.45
2024-01-04T06:20:40.637Z,8.85
2024-01-04T06:23:07.847Z,12.38
2024-01-04T06:25:36.306Z,11.18
2024-01-04T06:28:03.575Z,16.63
2024-01-04T06:30:30.885Z,15.23
2024-01-04T06:32:58.040Z,25.48
2024-01-04T06:35:25.053Z,33.72
2024-01-04T06:37:52.637Z,27.70
2024-01-04T06:40:20.577Z,41.60
2024-01-04T06:42:56.306Z,31.88
2024-01-04T06:45:24.129Z,20.83
2024-01-04T06:47:51.566Z,24.00
2024-01-04T06:50:19.741Z,31.48
2024-01-04T06:52:47.309Z,28.55
2024-01-04T06:55:14.990Z,36.55
2024-01-04T06:57:42.147Z,50.63
2024-01-04T07:00:11.905Z,87.32
2024-01-04T07:02:39.813Z,269.42
2024-01-04T07:05:08.257Z,70.15
2024-01-04T07:07:36.051Z,35.28
2024-01-04T07:10:03.766Z,25.20
2024-01-04T07:12:30.862Z,24.55
2024-01-04T07:14:58.069Z,23.30
2024-01-04T07:17:26.665Z,17.00
2024-01-04T07:19:53.923Z,16.98
2024-01-04T07:22:21.412Z,19.05
2024-01-04T07:24:48.904Z,11.80
2024-01-04T07:27:16.050Z,17.10
2024-01-04T07:29:43.130Z,12.93
2024-01-04T07:32:10.479Z,7.15
2024-01-04T07:34:40.712Z,11.65
2024-01-04T07:37:08.593Z,8.13
2024-01-04T07:39:35.608Z,9.07
2024-01-04T07:42:03.219Z,18.20
2024-01-04T07:44:30.550Z,25.35
2024-01-04T07:46:57.628Z,31.13
2024-01-04T07:49:26.030Z,18.55
2024-01-04T07:51:54.668Z,20.30
2024-01-04T07:54:22.051Z,18.50
2024-01-04T07:56:50.138Z,17.98
2024-01-04T07:59:17.214Z,16.35
2024-01-04T08:01:44.308Z,22.42
2024-01-04T08:04:11.429Z,23.33
2024-01-04T08:06:38.714Z,18.70
2024-01-04T08:09:08.400Z,14.52
2024-01-04T08:11:35.574Z,21.52
2024-01-04T08:14:03.654Z,11.27
2024-01-04T08:16:30.639Z,8.95
2024-01-04T08:18:57.932Z,12.02
2024-01-04T08:21:25.655Z,18.10
2024-01-04T08:23:52.856Z,22.98
2024-01-04T08:26:21.776Z,26.95
2024-01-04T08:28:48.855Z,32.42
2024-01-04T08:31:16.121Z,28.00
2024-01-04T08:33:43.278Z,30.20
2024-01-04T08:36:13.031Z,37.15
2024-01-04T08:38:40.632Z,37.33
2024-01-04T08:41:07.699Z,35.10
2024-01-04T08:43:36.100Z,41.75
2024-01-04T08:46:03.170Z,50.55
2024-01-04T08:48:31.130Z,69.75
2024-01-04T08:50:58.421Z,71.30
2024-01-04T08:53:25.580Z,69.65
2024-01-04T08:55:52.748Z,59.05
2024-01-04T08:58:19.852Z,55.65
2024-01-04T09:00:53.486Z,67.90
2024-01-04T09:03:21.144Z,56.80
2024-01-04T09:05:48.750Z,58.70
2024-01-04T09:08:15.923Z,34.10
2024-01-04T09:10:43.174Z,19.77
2024-01-04T09:13:10.223Z,36.08
2024-01-04T09:15:37.324Z,13.95
2024-01-04T09:18:06.229Z,10.45
2024-01-04T09:20:33.485Z,9.88
2024-01-04T09:23:00.582Z,9.13
2024-01-04T09:25:29.460Z,10.35
2024-01-04T09:27:56.765Z,16.50
2024-01-04T09:30:23.879Z,24.10
2024-01-04T09:32:51.263Z,3.28
2024-01-04T09:35:22.551Z,4.95
2024-01-04T09:37:52.803Z,4.65
2024-01-04T09:40:23.127Z,8.95
2024-01-04T09:42:56.119Z,12.98
2024-01-04T09:45:24.354Z,3.47
2024-01-04T09:47:55.013Z,5.65
2024-01-04T09:50:24.174Z,4.90
2024-01-04T09:52:56.310Z,4.65
2024-01-04T09:55:24.336Z,6.25
2024-01-04T09:57:51.315Z,3.00
2024-01-04T10:00:20.216Z,12.70
2024-01-04T10:02:48.307Z,17.70
2024-01-04T10:05:17.047Z,1.98
2024-01-04T10:07:57.534Z,3.25
2024-01-04T10:10:30.074Z,11.45
2024-01-04T10:12:58.611Z,3.08
2024-01-04T10:15:25.973Z,5.50
2024-01-04T10:17:54.374Z,4.25
2024-01-04T10:20:22.079Z,1.05
2024-01-04T10:22:51.208Z,3.65
2024-01-04T10:25:20.080Z,1.17
2024-01-04T10:27:56.122Z,1.52
2024-01-04T10:30:23.662Z,4.55
2024-01-04T10:32:51.957Z,1.33
2024-01-04T10:35:28.252Z,2.67
2024-01-04T10:38:02.867Z,1.27
2024-01-04T10:40:32.591Z,7.07
2024-01-04T10:43:02.477Z,0.85
2024-01-04T10:45:31.405Z,1.58
2024-01-04T10:47:58.754Z,3.95
2024-01-04T10:50:26.150Z,2.83
2024-01-04T10:52:55.737Z,2.28
2024-01-04T10:55:25.458Z,3.17
2024-01-04T10:57:53.397Z,2.10
2024-01-04T11:00:21.139Z,1.20
2024-01-04T11:02:50.891Z,2.42
2024-01-04T11:05:19.412Z,4.78
2024-01-04T11:07:49.031Z,1.30
2024-01-04T11:10:16.187Z,3.67
2024-01-04T11:12:46.744Z,3.50
2024-01-04T11:15:15.874Z,2.20
2024-01-04T11:18:00.434Z,1.55
2024-01-04T11:20:43.570Z,4.70
2024-01-04T11:23:34.348Z,3.45
2024-01-04T11:26:23.916Z,1.65
2024-01-04T11:28:53.704Z,3.03
2024-01-04T11:31:24.803Z,2.13
2024-01-04T11:33:52.361Z,1.23
2024-01-04T11:36:22.669Z,3.65
2024-01-04T11:38:51.291Z,0.80
2024-01-04T11:41:18.577Z,1.23
2024-01-04T11:43:45.695Z,3.03
2024-01-04T11:46:23.908Z,3.47
2024-01-04T11:48:55.803Z,4.57
2024-01-04T11:51:42.679Z,1.50
2024-01-04T11:54:11.627Z,4.22
2024-01-04T11:56:38.771Z,3.25
2024-01-04T11:59:10.188Z,1.42
2024-01-04T12:01:40.323Z,1.42
2024-01-04T12:04:08.976Z,2.40
2024-01-04T12:06:37.037Z,2.63
2024-01-04T12:09:04.447Z,1.30
2024-01-04T12:11:31.660Z,2.97
2024-01-04T12:13:58.653Z,2.42
2024-01-04T12:16:25.689Z,2.75
2024-01-04T12:18:54.418Z,2.70
2024-01-04T12:21:21.794Z,1.92
2024-01-04T12:23:51.021Z,3.92
2024-01-04T12:26:19.464Z,5.40
2024-01-04T12:28:46.783Z,2.85
2024-01-04T12:31:14.134Z,2.42
2024-01-04T12:33:44.566Z,1.40
2024-01-04T12:36:21.068Z,1.73
2024-01-04T12:38:48.634Z,6.00
2024-01-04T12:41:25.772Z,4.47
2024-01-04T12:43:54.841Z,2.05
2024-01-04T12:46:22.976Z,3.42
2024-01-04T12:48:53.391Z,2.45
2024-01-04T12:51:28.144Z,4.30
2024-01-04T12:53:55.414Z,4.28
2024-01-04T12:56:22.476Z,6.10
2024-01-04T12:58:51.242Z,2.55
2024-01-04T13:01:18.633Z,8.98
2024-01-04T13:03:46.429Z,1.60
2024-01-04T13:06:13.642Z,3.53
2024-01-04T13:08:42.337Z,2.00
2024-01-04T13:11:10.722Z,4.22
2024-01-04T13:13:40.341Z,3.47
2024-01-04T13:16:07.754Z,2.88
2024-01-04T13:18:35.082Z,8.43
2024-01-04T13:21:02.385Z,3.63
2024-01-04T13:23:31.064Z,3.65
2024-01-04T13:25:59.680Z,4.15
2024-01-04T13:28:26.967Z,2.17
2024-01-04T13:30:56.115Z,2.17
2024-01-04T13:33:23.465Z,3.30
2024-01-04T13:35:50.552Z,3.40
2024-01-04T13:38:17.517Z,2.17
2024-01-04T13:40:44.563Z,4.22
2024-01-04T13:43:13.004Z,5.60
2024-01-04T13:45:40.040Z,3.78
2024-01-04T13:48:07.683Z,5.65
2024-01-04T13:50:34.715Z,4.68
2024-01-04T13:53:03.640Z,3.30
2024-01-04T13:55:30.918Z,2.20
2024-01-04T13:57:58.021Z,5.28
2024-01-04T14:00:26.778Z,3.75
2024-01-04T14:02:53.870Z,5.07
2024-01-04T14:05:20.981Z,17.73
2024-01-04T14:07:48.968Z,4.68
2024-01-04T14:10:16.253Z,9.43
2024-01-04T14:12:43.297Z,4.28
2024-01-04T14:15:10.913Z,3.70
2024-01-04T14:17:40.813Z,5.55
2024-01-04T14:20:10.560Z,2.05
2024-01-04T14:22:37.746Z,3.50
2024-01-04T14:25:05.571Z,4.68
2024-01-04T14:27:32.679Z,2.63
2024-01-04T14:29:59.723Z,1.63
2024-01-04T14:32:33.273Z,2.40
2024-01-04T14:35:06.057Z,2.97
2024-01-04T14:37:33.552Z,5.68
2024-01-04T14:40:00.818Z,5.45
2024-01-04T14:42:32.589Z,3.72
2024-01-04T14:44:59.800Z,3.25
2024-01-04T14:47:26.838Z,3.63
2024-01-04T14:49:54.002Z,8.02
2024-01-04T14:52:25.274Z,4.78
2024-01-04T14:54:53.480Z,8.82
2024-01-04T14:57:20.962Z,5.47
2024-01-04T14:59:49.019Z,3.22
2024-01-04T15:02:16.153Z,5.03
2024-01-04T15:04:43.127Z,6.88
2024-01-04T15:07:10.338Z,5.05
2024-01-04T15:09:38.730Z,8.00
2024-01-04T15:12:05.953Z,3.92
2024-01-04T15:14:33.076Z,5.57
2024-01-04T15:17:00.119Z,3.97
2024-01-04T15:19:27.239Z,5.40
2024-01-04T15:21:54.394Z,3.65
2024-01-04T15:24:21.747Z,2.63
2024-01-04T15:26:50.469Z,3.40
2024-01-04T15:29:17.673Z,3.45
2024-01-04T15:31:45.446Z,3.67
2024-01-04T15:34:12.494Z,3.58
2024-01-04T15:36:41.977Z,2.67
2024-01-04T15:39:09.554Z,14.75
2024-01-04T15:41:36.656Z,4.95
2024-01-04T15:44:05.284Z,6.18
2024-01-04T15:46:32.306Z,1.55
2024-01-04T15:48:59.452Z,3.35
2024-01-04T15:51:27.066Z,3.78
2024-01-04T15:53:57.330Z,2.50
2024-01-04T15:56:27.345Z,2.97
2024-01-04T15:58:55.842Z,4.13
2024-01-04T16:01:24.485Z,3.63
2024-01-04T16:03:53.419Z,3.13
2024-01-04T16:06:20.720Z,4.95
2024-01-04T16:08:48.076Z,3.45
2024-01-04T16:11:15.399Z,5.45
2024-01-04T16:13:42.524Z,2.50
2024-01-04T16:16:09.697Z,3.10
2024-01-04T16:18:38.205Z,2.60
2024-01-04T16:21:11.658Z,3.97
2024-01-04T16:23:39.116Z,2.50
2024-01-04T16:26:07.714Z,3.38
2024-01-04T16:28:35.063Z,2.83
2024-01-04T16:31:02.457Z,4.93
2024-01-04T16:33:29.622Z,1.83
2024-01-04T16:36:02.164Z,5.97
2024-01-04T16:38:29.249Z,3.30
2024-01-04T16:40:56.405Z,5.05
2024-01-04T16:43:23.438Z,3.00
2024-01-04T16:45:50.423Z,6.20
2024-01-04T16:48:17.530Z,5.75
2024-01-04T16:50:44.673Z,6.53
2024-01-04T16:53:13.529Z,3.75
2024-01-04T16:55:40.507Z,5.57
2024-01-04T16:58:10.963Z,6.03
2024-01-04T17:00:38.098Z,4.60
2024-01-04T17:03:05.667Z,4.10
2024-01-04T17:05:32.837Z,7.40
2024-01-04T17:08:00.259Z,4.72
2024-01-04T17:10:28.719Z,4.30
2024-01-04T17:12:55.703Z,4.28
2024-01-04T17:15:22.948Z,5.90
2024-01-04T17:17:50.091Z,3.25
2024-01-04T17:20:18.439Z,4.28
2024-01-04T17:22:45.786Z,4.93
2024-01-04T17:25:13.279Z,2.95
2024-01-04T17:27:41.703Z,3.70
2024-01-04T17:30:10.612Z,1.70
2024-01-04T17:32:37.813Z,5.72
2024-01-04T17:35:05.515Z,3.85
2024-01-04T17:37:34.842Z,3.95
2024-01-04T17:40:02.034Z,2.03
2024-01-04T17:42:29.102Z,3.38
2024-01-04T17:44:58.181Z,1.15
2024-01-04T17:47:27.900Z,1.60
2024-01-04T17:49:56.688Z,2.72
2024-01-04T17:52:24.567Z,4.18
2024-01-04T17:54:53.429Z,1.40
2024-01-04T17:57:20.879Z,0.77
2024-01-04T17:59:48.750Z,2.78
2024-01-04T18:02:20.591Z,2.13
2024-01-04T18:04:47.841Z,0.85
2024-01-04T18:07:16.157Z,1.30
2024-01-04T18:09:43.186Z,1.63
2024-01-04T18:12:10.237Z,3.75
2024-01-04T18:14:37.333Z,1.42
2024-01-04T18:17:04.848Z,1.40
2024-01-04T18:19:33.271Z,1.15
2024-01-04T18:22:00.362Z,0.88
2024-01-04T18:24:30.804Z,1.30
2024-01-04T18:26:58.289Z,1.02
2024-01-04T18:29:25.292Z,1.98
2024-01-04T18:31:52.719Z,0.95
2024-01-04T18:34:23.381Z,2.72
2024-01-04T18:36:52.797Z,2.53
2024-01-04T18:39:20.908Z,1.15
2024-01-04T18:41:48.024Z,1.65
2024-01-04T18:44:18.117Z,1.05
2024-01-04T18:46:45.223Z,3.58
2024-01-04T18:49:12.805Z,0.93
2024-01-04T18:51:40.255Z,4.72
2024-01-04T18:54:08.792Z,2.40
2024-01-04T18:56:35.952Z,5.68
2024-01-04T18:59:03.482Z,2.45
2024-01-04T19:01:30.965Z,1.20
2024-01-04T19:03:58.399Z,1.40
2024-01-04T19:06:25.634Z,3.00
2024-01-04T19:08:52.910Z,1.88
2024-01-04T19:11:21.735Z,3.90
2024-01-04T19:13:49.093Z,4.40
2024-01-04T19:16:16.303Z,4.93
2024-01-04T19:18:48.519Z,1.67
2024-01-04T19:21:17.842Z,1.77
2024-01-04T19:23:46.245Z,3.80
2024-01-04T19:26:13.362Z,1.38
2024-01-04T19:28:41.850Z,2.95
2024-01-04T19:31:08.939Z,1.23
2024-01-04T19:33:36.298Z,4.22
2024-01-04T19:36:04.092Z,2.42
2024-01-04T19:38:31.231Z,2.63
2024-01-04T19:40:59.576Z,4.15
2024-01-04T19:43:28.510Z,2.70
2024-01-04T19:46:03.861Z,5.53
2024-01-04T19:48:34.542Z,2.25
2024-01-04T19:51:02.312Z,3.72
2024-01-04T19:53:29.385Z,3.45
2024-01-04T19:55:56.918Z,6.03
2024-01-04T19:58:24.161Z,4.18
2024-01-04T20:00:52.318Z,3.55
2024-01-04T20:03:21.182Z,6.38
2024-01-04T20:05:48.371Z,6.15
2024-01-04T20:08:15.602Z,4.40
2024-01-04T20:10:42.776Z,3.92
2024-01-04T20:13:09.902Z,2.75
2024-01-04T20:15:37.166Z,4.80
2024-01-04T20:18:04.955Z,4.55
2024-01-04T20:20:33.462Z,2.55
2024-01-04T20:23:00.577Z,3.30
2024-01-04T20:25:27.719Z,5.55
2024-01-04T20:27:55.343Z,3.60
2024-01-04T20:30:22.459Z,4.70
2024-01-04T20:32:49.743Z,4.75
2024-01-04T20:35:16.888Z,4.20
2024-01-04T20:37:45.294Z,4.00
2024-01-04T20:40:15.388Z,2.25
2024-01-04T20:42:45.879Z,2.72
2024-01-04T20:45:15.752Z,3.42
2024-01-04T20:47:43.065Z,2.72
2024-01-04T20:50:10.133Z,4.05
2024-01-04T20:52:37.168Z,3.70
2024-01-04T20:55:07.443Z,5.03
2024-01-04T20:57:35.606Z,6.43
2024-01-04T21:00:02.746Z,7.57
2024-01-04T21:02:29.753Z,10.85
2024-01-04T21:04:56.745Z,7.25
2024-01-04T21:07:24.266Z,3.90
2024-01-04T21:09:51.314Z,4.00
2024-01-04T21:12:19.747Z,7.78
2024-01-04T21:14:46.965Z,4.43
2024-01-04T21:17:14.535Z,4.95
2024-01-04T21:19:42.431Z,5.97
2024-01-04T21:22:09.621Z,5.07
2024-01-04T21:24:36.822Z,7.07
2024-01-04T21:27:04.629Z,31.00
2024-01-04T21:29:33.214Z,21.25
2024-01-04T21:32:00.253Z,22.20
2024-01-04T21:34:27.553Z,7.32
2024-01-04T21:36:54.621Z,16.10
2024-01-04T21:39:22.399Z,5.82
2024-01-04T21:41:49.759Z,10.63
2024-01-04T21:44:17.126Z,8.25
2024-01-04T21:46:50.866Z,7.00
2024-01-04T21:49:20.473Z,5.03
2024-01-04T21:51:47.734Z,3.17
2024-01-04T21:54:14.707Z,5.40
2024-01-04T21:56:41.964Z,4.95
2024-01-04T21:59:09.046Z,3.92
2024-01-04T22:01:39.141Z,4.30
2024-01-04T22:04:07.994Z,6.00
2024-01-04T22:06:35.199Z,5.80
2024-01-04T22:09:04.126Z,3.42
2024-01-04T22:11:31.162Z,5.38
2024-01-04T22:14:01.682Z,2.47
2024-01-04T22:16:32.634Z,3.45
2024-01-04T22:18:59.945Z,4.55
2024-01-04T22:21:28.655Z,3.33
2024-01-04T22:23:56.026Z,3.25
2024-01-04T22:26:23.409Z,4.05
2024-01-04T22:28:51.007Z,5.32
2024-01-04T22:31:18.406Z,4.15
2024-01-04T22:33:46.106Z,2.53
2024-01-04T22:36:13.440Z,5.28
2024-01-04T22:38:41.831Z,3.85
2024-01-04T22:41:09.039Z,3.63
2024-01-04T22:43:36.323Z,4.60
2024-01-04T22:46:04.649Z,3.80
2024-01-04T22:48:31.925Z,3.30
2024-01-04T22:50:59.196Z,5.60
2024-01-04T22:53:26.275Z,5.20
2024-01-04T22:55:54.762Z,3.95
2024-01-04T22:58:21.906Z,2.13
2024-01-04T23:00:49.241Z,7.97
2024-01-04T23:03:17.058Z,2.28
2024-01-04T23:05:44.235Z,3.47
2024-01-04T23:08:11.232Z,3.00
2024-01-04T23:10:38.219Z,2.13
2024-01-04T23:13:06.656Z,3.22
2024-01-04T23:15:33.784Z,3.28
2024-01-04T23:18:02.235Z,3.00
2024-01-04T23:20:29.522Z,4.00
2024-01-04T23:22:56.610Z,3.28
2024-01-04T23:25:23.558Z,6.25
2024-01-04T23:27:50.574Z,2.70
2024-01-04T23:30:19.735Z,3.00
2024-01-04T23:32:46.960Z,2.13
2024-01-04T23:35:14.337Z,2.38
2024-01-04T23:37:41.435Z,2.58
2024-01-04T23:40:09.607Z,3.83
2024-01-04T23:42:37.030Z,3.50
2024-01-04T23:45:04.902Z,2.90
2024-01-04T23:47:33.638Z,3.40
2024-01-04T23:50:00.978Z,3.33
2024-01-04T23:52:28.260Z,3.97
2024-01-04T23:54:55.310Z,3.13
2024-01-04T23:57:22.378Z,6.55
2024-01-04T23:59:49.457Z,5.15
